logo
Search for airport 
image banner adimage banner adimage banner ad
image banner ad

ED1477 - Frankfurt-Gronenfelde

Located in Frankfurt/Oder, Germany

ICAO - , IATA -

Data provided by Airmate  

General information

Coordinates: N52°21'51" E14°29'40"
Elevation is 212 feet MSL.
Magnetic variation is 3.0000° East
View others Airports in Brandenburg

Operational data

Special qualification required
Current time UTC:
Current local time:
Weather at : EDDB - Berlin Brandenburg ( 67 km )
METAR: EDDB 171320Z AUTO 20010KT 140V240 9999 FEW039 24/13 Q1012 TEMPO SHRA
TAF: TAF EDDB 171100Z 1712/1812 25009KT 9999 SCT020 TEMPO 1713/1718 25015G25KT 4500 TSRA BKN030CB BECMG 1718/1720 22004KT PROB30 TEMPO 1803/1805 4000 BR
View NOTAMs / SUP AIP / TFR affecting this airport [VIEW]
Communications frequencies: [VIEW]

Runways:

Airport contact information

Address: Frankfurt/Oder Germany

Satellite view of ED1477